Time;durP1;ratioP1;P1;durP2;ratioP2;P2;SDS_P1;SDS_P2;PMS_P1;PMS_P2;Temp;Humidity;BMP_temperature;BMP_pressure;BME280_temperature;BME280_humidity;BME280_pressure;Samples;Min_cycle;Max_cycle;Signal;HPM_P1;HPM_P2
2023/03/31 00:01:24;;;;;;;34.70;6.07;;;10.50;99.90;;;;;;5000575;28;20045;-52
2023/03/31 00:03:50;;;;;;;30.00;5.68;;;10.50;99.90;;;;;;5007250;28;20073;-55
2023/03/31 00:06:19;;;;;;;39.47;6.68;;;10.50;99.90;;;;;;4987077;28;20123;-52
2023/03/31 00:08:46;;;;;;;40.10;7.57;;;10.50;99.90;;;;;;4989829;28;20050;-55
2023/03/31 00:11:12;;;;;;;32.38;5.78;;;10.50;99.90;;;;;;5014114;28;20125;-52
2023/03/31 00:13:38;;;;;;;30.90;5.53;;;10.50;99.90;;;;;;5008941;28;20049;-53
2023/03/31 00:16:07;;;;;;;35.28;7.13;;;10.50;99.90;;;;;;5016452;28;20410;-52
2023/03/31 00:18:33;;;;;;;35.90;5.85;;;10.50;99.90;;;;;;5011895;28;20095;-54
2023/03/31 00:21:07;;;;;;;36.22;7.28;;;10.40;99.90;;;;;;4985131;28;20041;-55
2023/03/31 00:23:33;;;;;;;31.38;6.18;;;10.40;99.90;;;;;;5004982;28;20034;-56
2023/03/31 00:25:58;;;;;;;37.45;7.78;;;10.40;99.90;;;;;;5009265;28;20738;-53
2023/03/31 00:28:24;;;;;;;35.67;5.97;;;10.40;99.90;;;;;;4999458;28;20480;-54
2023/03/31 00:30:50;;;;;;;36.03;5.53;;;10.40;99.90;;;;;;5004019;28;20050;-55
2023/03/31 00:33:16;;;;;;;37.05;6.72;;;10.40;99.90;;;;;;4982822;28;20104;-55
2023/03/31 00:35:42;;;;;;;32.70;5.72;;;10.40;99.90;;;;;;4995785;28;20045;-54
2023/03/31 00:38:08;;;;;;;34.58;6.35;;;10.40;99.90;;;;;;4993792;28;20045;-56
2023/03/31 00:40:45;;;;;;;34.13;5.78;;;10.40;99.90;;;;;;5012236;28;20080;-52
2023/03/31 00:43:28;;;;;;;33.58;6.18;;;10.40;99.90;;;;;;4998599;28;20113;-55
2023/03/31 00:45:59;;;;;;;37.40;6.95;;;10.40;99.90;;;;;;4982635;28;20507;-55
2023/03/31 00:48:26;;;;;;;31.98;6.93;;;10.30;99.90;;;;;;5009860;28;20050;-58
2023/03/31 00:50:59;;;;;;;35.88;6.93;;;10.30;99.90;;;;;;5011186;28;20188;-54
2023/03/31 00:53:28;;;;;;;37.13;7.80;;;10.30;99.90;;;;;;5003857;28;20120;-54
2023/03/31 00:56:00;;;;;;;31.42;6.15;;;10.30;99.90;;;;;;4989095;28;20049;-55
2023/03/31 00:58:32;;;;;;;25.50;5.28;;;10.20;99.90;;;;;;5009641;28;20049;-53
2023/03/31 01:01:00;;;;;;;30.92;5.72;;;10.20;99.90;;;;;;4981099;28;20690;-52
2023/03/31 01:03:29;;;;;;;35.88;6.80;;;10.20;99.90;;;;;;4969894;28;20498;-52
2023/03/31 01:06:09;;;;;;;28.20;7.13;;;10.10;99.90;;;;;;5010622;28;20168;-52
2023/03/31 01:08:37;;;;;;;38.85;6.68;;;10.10;99.90;;;;;;5005081;28;20050;-53
2023/03/31 01:11:08;;;;;;;34.20;6.35;;;10.10;99.90;;;;;;5014418;28;20524;-52
2023/03/31 01:13:36;;;;;;;35.95;5.70;;;10.00;99.90;;;;;;4994878;28;20053;-55
2023/03/31 01:16:01;;;;;;;33.03;6.90;;;10.00;99.90;;;;;;4981127;28;20041;-51
2023/03/31 01:18:28;;;;;;;32.28;5.55;;;10.00;99.90;;;;;;4990843;28;20394;-52
2023/03/31 01:21:08;;;;;;;35.83;6.43;;;10.00;99.90;;;;;;5015382;28;20038;-54
2023/03/31 01:24:12;;;;;;;28.10;5.22;;;9.90;99.90;;;;;;5009596;28;20478;-55
2023/03/31 01:26:52;;;;;;;32.85;5.95;;;9.90;99.90;;;;;;4976144;28;20136;-52
2023/03/31 01:29:39;;;;;;;28.05;5.85;;;9.90;99.90;;;;;;4989855;28;20081;-54
2023/03/31 01:32:26;;;;;;;31.88;5.93;;;9.80;99.90;;;;;;5010060;28;20128;-54
2023/03/31 01:35:07;;;;;;;34.65;6.95;;;9.80;99.90;;;;;;5007060;28;20054;-55
2023/03/31 01:37:36;;;;;;;32.22;7.78;;;9.80;99.90;;;;;;5001081;28;20033;-54
2023/03/31 01:40:08;;;;;;;27.60;6.45;;;9.70;99.90;;;;;;4995309;28;20033;-52
2023/03/31 01:42:41;;;;;;;29.02;6.43;;;9.70;99.90;;;;;;4992082;28;20075;-54
2023/03/31 01:45:13;;;;;;;19.38;5.80;;;9.70;99.90;;;;;;4991569;28;20087;-56
2023/03/31 01:48:11;;;;;;;33.45;7.13;;;9.70;99.90;;;;;;4989631;28;20045;-54
2023/03/31 01:50:46;;;;;;;25.52;5.80;;;9.70;99.90;;;;;;4988661;28;20045;-56
2023/03/31 01:53:26;;;;;;;30.00;6.60;;;9.70;99.90;;;;;;4996196;28;20052;-55
2023/03/31 01:56:05;;;;;;;24.35;5.63;;;9.70;99.90;;;;;;5012625;28;20053;-57
2023/03/31 01:58:49;;;;;;;31.88;5.70;;;9.70;99.90;;;;;;5020488;28;20319;-54
2023/03/31 02:01:24;;;;;;;25.63;5.50;;;9.70;99.90;;;;;;5006862;28;20049;-54
2023/03/31 02:04:09;;;;;;;29.45;5.47;;;9.70;99.90;;;;;;5012789;28;20041;-52
2023/03/31 02:06:41;;;;;;;29.52;6.20;;;9.70;99.90;;;;;;4998706;28;20047;-53
2023/03/31 02:09:15;;;;;;;30.40;6.55;;;9.80;99.90;;;;;;5008375;28;20052;-55
2023/03/31 02:11:42;;;;;;;32.55;6.47;;;9.80;99.90;;;;;;4995183;28;20558;-56
2023/03/31 02:14:11;;;;;;;24.90;5.88;;;9.90;99.90;;;;;;4995510;28;20054;-55
2023/03/31 02:16:46;;;;;;;25.80;5.55;;;9.90;99.90;;;;;;5001987;28;20069;-55
2023/03/31 02:19:17;;;;;;;26.40;5.82;;;9.90;99.90;;;;;;5002224;28;20551;-51
2023/03/31 02:21:48;;;;;;;27.98;6.18;;;9.90;99.90;;;;;;4992919;28;20049;-56
2023/03/31 02:24:16;;;;;;;30.05;6.05;;;9.90;99.90;;;;;;5011699;28;20412;-54
2023/03/31 02:27:02;;;;;;;29.02;5.93;;;9.90;99.90;;;;;;5007399;28;20519;-56
2023/03/31 02:29:28;;;;;;;33.38;6.72;;;9.90;99.90;;;;;;5005539;28;20050;-56
2023/03/31 02:32:12;;;;;;;24.08;5.13;;;9.90;99.90;;;;;;5000122;28;20539;-55
2023/03/31 02:34:38;;;;;;;26.90;5.75;;;10.00;99.90;;;;;;4977494;28;20053;-55
2023/03/31 02:37:05;;;;;;;32.03;5.05;;;9.90;99.90;;;;;;4970208;28;20038;-58
2023/03/31 02:39:35;;;;;;;29.13;5.75;;;9.90;99.90;;;;;;5013625;28;20059;-52
2023/03/31 02:42:06;;;;;;;23.35;4.80;;;9.90;99.90;;;;;;5011800;28;20500;-52
2023/03/31 02:44:38;;;;;;;27.83;5.60;;;9.90;99.90;;;;;;4993555;28;20077;-54
2023/03/31 02:47:07;;;;;;;31.35;5.90;;;9.90;99.90;;;;;;5006182;28;20052;-54
2023/03/31 02:49:35;;;;;;;25.50;4.45;;;9.90;99.90;;;;;;5005584;28;20053;-56
2023/03/31 02:52:26;;;;;;;30.27;5.55;;;9.80;99.90;;;;;;5004180;28;20042;-56
2023/03/31 02:54:55;;;;;;;30.33;5.53;;;9.80;99.90;;;;;;5002502;28;20335;-52
2023/03/31 02:57:48;;;;;;;23.33;5.18;;;9.80;99.90;;;;;;4987034;28;20034;-55
2023/03/31 03:00:28;;;;;;;20.88;4.82;;;9.80;99.90;;;;;;4999410;28;20042;-55
2023/03/31 03:03:31;;;;;;;25.27;5.60;;;9.80;99.90;;;;;;5000653;28;20137;-54
2023/03/31 03:06:22;;;;;;;30.77;6.70;;;9.80;99.90;;;;;;5004309;28;20053;-52
2023/03/31 03:08:54;;;;;;;20.73;4.35;;;9.80;99.90;;;;;;5003885;28;20658;-54
2023/03/31 03:11:50;;;;;;;19.55;4.40;;;9.80;99.90;;;;;;4990061;28;20076;-54
2023/03/31 03:14:55;;;;;;;25.60;5.18;;;9.80;99.90;;;;;;5008206;28;20091;-54
2023/03/31 03:17:29;;;;;;;21.38;3.97;;;9.80;99.90;;;;;;4974124;28;20065;-54
2023/03/31 03:19:58;;;;;;;22.67;4.93;;;9.80;99.90;;;;;;5008195;28;20045;-55
2023/03/31 03:22:24;;;;;;;26.10;4.78;;;9.80;99.90;;;;;;4981772;28;20030;-54
2023/03/31 03:24:51;;;;;;;27.05;4.70;;;9.80;99.90;;;;;;4983447;28;20531;-55
2023/03/31 03:27:17;;;;;;;20.33;4.32;;;9.80;99.90;;;;;;4969509;28;20462;-53
2023/03/31 03:29:43;;;;;;;27.92;5.35;;;9.90;99.90;;;;;;4991291;28;20041;-56
2023/03/31 03:32:09;;;;;;;18.08;3.90;;;9.90;99.90;;;;;;4993092;28;20045;-53
2023/03/31 03:34:35;;;;;;;20.60;4.18;;;9.90;99.90;;;;;;4989144;28;20049;-52
2023/03/31 03:37:00;;;;;;;23.20;5.25;;;9.90;99.90;;;;;;5008331;28;20042;-52
2023/03/31 03:39:26;;;;;;;18.95;4.38;;;9.90;99.90;;;;;;4979101;28;20564;-55
2023/03/31 03:41:52;;;;;;;27.05;5.15;;;9.90;99.90;;;;;;5007657;28;20046;-53
2023/03/31 03:44:17;;;;;;;15.25;4.63;;;10.00;99.90;;;;;;4989287;28;20497;-53
2023/03/31 03:46:43;;;;;;;22.83;4.47;;;10.00;99.90;;;;;;4993245;28;20451;-51
2023/03/31 03:49:09;;;;;;;17.40;4.97;;;10.00;99.90;;;;;;5013452;28;20037;-53
2023/03/31 03:51:34;;;;;;;20.15;5.13;;;10.00;99.90;;;;;;4995022;28;20042;-54
2023/03/31 03:54:00;;;;;;;26.42;5.68;;;10.00;99.90;;;;;;5009003;28;20129;-55
2023/03/31 03:56:26;;;;;;;18.63;5.57;;;10.00;99.90;;;;;;4995925;28;20464;-55
2023/03/31 03:58:52;;;;;;;19.65;5.03;;;10.00;99.90;;;;;;4988957;28;20038;-53
2023/03/31 04:01:18;;;;;;;24.55;6.43;;;10.00;99.90;;;;;;5009844;28;20048;-52
2023/03/31 04:03:44;;;;;;;21.55;5.07;;;10.10;99.90;;;;;;4981892;28;20037;-52
2023/03/31 04:06:10;;;;;;;11.88;4.60;;;10.10;99.90;;;;;;4993891;28;20049;-53
2023/03/31 04:08:36;;;;;;;21.10;6.18;;;10.10;99.90;;;;;;4994909;28;20140;-54
2023/03/31 04:11:02;;;;;;;17.35;5.25;;;10.10;99.90;;;;;;5003790;28;20132;-53
2023/03/31 04:13:27;;;;;;;20.67;5.90;;;10.10;99.90;;;;;;5012951;28;20463;-56
2023/03/31 04:15:53;;;;;;;20.77;5.70;;;10.10;99.90;;;;;;5006440;28;20046;-56
2023/03/31 04:18:22;;;;;;;15.93;5.47;;;10.10;99.90;;;;;;5000922;28;20602;-56
2023/03/31 04:21:11;;;;;;;18.52;5.93;;;10.10;99.90;;;;;;5004671;28;20037;-58
2023/03/31 04:23:41;;;;;;;20.45;5.65;;;10.10;99.90;;;;;;4991596;28;20084;-55
2023/03/31 04:26:10;;;;;;;19.95;5.75;;;10.10;99.90;;;;;;5013298;28;20081;-56
2023/03/31 04:28:37;;;;;;;22.23;6.40;;;10.10;99.90;;;;;;5016051;28;20048;-54
2023/03/31 04:31:05;;;;;;;19.20;6.28;;;10.10;99.90;;;;;;4993739;28;20038;-57
2023/03/31 04:33:32;;;;;;;18.48;5.97;;;10.10;99.90;;;;;;5006131;28;20153;-53
2023/03/31 04:36:05;;;;;;;16.42;6.15;;;10.10;99.90;;;;;;5014187;28;20042;-53
2023/03/31 04:38:32;;;;;;;19.52;6.75;;;10.10;99.90;;;;;;4979971;28;20085;-55
2023/03/31 04:40:58;;;;;;;15.57;6.30;;;10.10;99.90;;;;;;4987869;28;20112;-55
2023/03/31 04:43:24;;;;;;;21.58;6.68;;;10.10;99.90;;;;;;4998423;28;20527;-54
2023/03/31 04:45:50;;;;;;;17.23;5.60;;;10.10;99.90;;;;;;4994318;28;20045;-55
2023/03/31 04:48:16;;;;;;;16.77;6.53;;;10.10;99.90;;;;;;5006056;28;20425;-53
2023/03/31 04:50:42;;;;;;;18.70;6.55;;;10.10;99.90;;;;;;4974020;28;20049;-52
2023/03/31 04:53:08;;;;;;;15.38;6.60;;;10.10;99.90;;;;;;4964248;28;20409;-55
2023/03/31 04:55:34;;;;;;;22.73;7.55;;;10.20;99.90;;;;;;4995165;28;20084;-55
2023/03/31 04:58:00;;;;;;;19.35;6.70;;;10.20;99.90;;;;;;4995021;28;20215;-57
2023/03/31 05:00:27;;;;;;;21.70;6.85;;;10.20;99.90;;;;;;5004259;28;20099;-57
2023/03/31 05:02:53;;;;;;;17.15;6.13;;;10.20;99.90;;;;;;4979038;28;20516;-57
2023/03/31 05:05:19;;;;;;;19.45;7.28;;;10.10;99.90;;;;;;4997890;28;20042;-55
2023/03/31 05:07:45;;;;;;;17.35;6.75;;;10.20;99.90;;;;;;4986862;28;20038;-55
2023/03/31 05:10:10;;;;;;;20.27;6.38;;;10.10;99.90;;;;;;5003665;28;20128;-54
2023/03/31 05:12:37;;;;;;;19.02;6.88;;;10.20;99.90;;;;;;5000171;28;20069;-56
2023/03/31 05:15:07;;;;;;;19.80;6.80;;;10.20;99.90;;;;;;4995576;28;20125;-53
2023/03/31 05:17:34;;;;;;;17.85;6.30;;;10.20;99.90;;;;;;5013199;28;20276;-56
2023/03/31 05:20:00;;;;;;;23.02;8.20;;;10.20;99.90;;;;;;5020901;28;20516;-53
2023/03/31 05:22:26;;;;;;;17.10;7.10;;;10.20;99.90;;;;;;5009059;28;20355;-55
2023/03/31 05:24:52;;;;;;;20.25;7.35;;;10.20;99.90;;;;;;4993617;28;20046;-54
2023/03/31 05:27:20;;;;;;;19.80;6.40;;;10.20;99.90;;;;;;4995696;28;20052;-53
2023/03/31 05:29:46;;;;;;;18.80;7.40;;;10.20;99.90;;;;;;4984745;28;20085;-57
2023/03/31 05:32:11;;;;;;;21.70;7.80;;;10.20;99.90;;;;;;4986863;28;20069;-56
2023/03/31 05:34:37;;;;;;;20.45;8.25;;;10.20;99.90;;;;;;4996016;28;20099;-53
2023/03/31 05:37:03;;;;;;;19.63;7.85;;;10.20;99.90;;;;;;4997228;28;20524;-56
2023/03/31 05:39:31;;;;;;;17.80;7.28;;;10.20;99.90;;;;;;5001276;28;20128;-53
2023/03/31 05:41:58;;;;;;;16.77;7.57;;;10.20;99.90;;;;;;5009099;28;20517;-56
2023/03/31 05:44:26;;;;;;;18.33;7.93;;;10.20;99.90;;;;;;4977689;28;20050;-55
2023/03/31 05:46:52;;;;;;;17.45;7.82;;;10.20;99.90;;;;;;4989788;28;20085;-54
2023/03/31 05:49:18;;;;;;;18.52;8.07;;;10.20;99.90;;;;;;4992472;28;20050;-59
2023/03/31 05:51:44;;;;;;;19.80;8.73;;;10.20;99.90;;;;;;4996409;28;20053;-55
2023/03/31 05:54:10;;;;;;;16.48;8.18;;;10.20;99.90;;;;;;4992602;28;20437;-56
2023/03/31 05:56:35;;;;;;;17.75;7.88;;;10.20;99.90;;;;;;4999746;28;20135;-54
2023/03/31 05:59:01;;;;;;;19.83;7.93;;;10.30;99.90;;;;;;4975041;28;20033;-56
2023/03/31 06:01:28;;;;;;;14.75;7.55;;;10.30;99.90;;;;;;4999385;28;20050;-56
2023/03/31 06:03:55;;;;;;;18.70;7.88;;;10.30;99.90;;;;;;5001772;28;20065;-58
2023/03/31 06:06:21;;;;;;;17.50;7.55;;;10.30;99.90;;;;;;4991386;28;20080;-56
2023/03/31 06:08:47;;;;;;;16.05;7.72;;;10.30;99.90;;;;;;4995851;28;20046;-57
2023/03/31 06:11:19;;;;;;;15.63;8.13;;;10.30;99.90;;;;;;4994212;28;20448;-57
2023/03/31 06:13:45;;;;;;;18.92;7.38;;;10.30;99.90;;;;;;5007226;28;20559;-56
2023/03/31 06:16:12;;;;;;;14.18;7.40;;;10.30;99.90;;;;;;4991231;28;20039;-56
2023/03/31 06:18:38;;;;;;;17.42;7.75;;;10.30;99.90;;;;;;5006415;28;20049;-54
2023/03/31 06:21:05;;;;;;;12.95;7.07;;;10.30;99.90;;;;;;5008097;28;20033;-55
2023/03/31 06:23:31;;;;;;;11.23;6.30;;;10.30;99.90;;;;;;4985506;28;20041;-56
2023/03/31 06:26:02;;;;;;;17.17;7.28;;;10.30;99.90;;;;;;5004276;28;20099;-56
2023/03/31 06:28:29;;;;;;;14.55;6.20;;;10.30;99.90;;;;;;4998340;28;20060;-54
2023/03/31 06:31:06;;;;;;;14.13;6.55;;;10.30;99.90;;;;;;5000498;28;20095;-54
2023/03/31 06:33:33;;;;;;;13.25;5.57;;;10.30;99.90;;;;;;4983897;28;20042;-55
2023/03/31 06:36:00;;;;;;;14.93;5.28;;;10.30;99.90;;;;;;5004322;28;20066;-56
2023/03/31 06:38:27;;;;;;;14.60;5.05;;;10.30;99.90;;;;;;4996980;28;20065;-56
2023/03/31 06:40:53;;;;;;;12.43;5.20;;;10.30;99.90;;;;;;5002467;28;20038;-55
2023/03/31 06:43:19;;;;;;;11.60;5.47;;;10.30;99.90;;;;;;5004209;28;20099;-54
2023/03/31 06:45:46;;;;;;;8.90;4.75;;;10.30;99.90;;;;;;5008828;28;20470;-57
2023/03/31 06:48:11;;;;;;;10.15;5.57;;;10.30;99.90;;;;;;4988608;28;20058;-56
2023/03/31 06:50:38;;;;;;;11.43;5.57;;;10.30;99.90;;;;;;4985692;28;20050;-55
2023/03/31 06:53:04;;;;;;;13.48;5.03;;;10.30;99.90;;;;;;5003918;28;20046;-56
2023/03/31 06:55:32;;;;;;;9.00;4.97;;;10.30;99.90;;;;;;4982846;28;20179;-55
2023/03/31 06:57:58;;;;;;;12.88;7.15;;;10.30;99.90;;;;;;4996151;28;20053;-54
2023/03/31 07:00:25;;;;;;;9.80;4.38;;;10.30;99.90;;;;;;4983805;28;21052;-54
2023/03/31 07:02:52;;;;;;;14.63;4.95;;;10.30;99.90;;;;;;4994469;28;20088;-54
2023/03/31 07:05:18;;;;;;;10.63;4.72;;;10.30;99.90;;;;;;5008300;28;20377;-55
2023/03/31 07:07:44;;;;;;;9.65;4.32;;;10.30;99.90;;;;;;4991221;28;20038;-55
2023/03/31 07:10:10;;;;;;;10.68;4.80;;;10.30;99.90;;;;;;4993984;28;20091;-59
2023/03/31 07:12:36;;;;;;;15.75;5.10;;;10.30;99.90;;;;;;4984455;28;20397;-55
2023/03/31 07:15:02;;;;;;;11.43;3.92;;;10.30;99.90;;;;;;5009095;28;20497;-53
2023/03/31 07:17:28;;;;;;;13.35;4.80;;;10.30;99.90;;;;;;5007581;28;20535;-55
2023/03/31 07:19:53;;;;;;;11.05;3.58;;;10.30;99.90;;;;;;4969801;28;20049;-54
2023/03/31 07:22:19;;;;;;;11.00;3.65;;;10.30;99.90;;;;;;4988969;28;20528;-54
2023/03/31 07:24:45;;;;;;;9.98;3.63;;;10.30;99.90;;;;;;5006298;28;20041;-55
2023/03/31 07:27:11;;;;;;;13.50;4.82;;;10.30;99.90;;;;;;4999680;28;20038;-55
2023/03/31 07:29:36;;;;;;;13.73;5.97;;;10.30;99.90;;;;;;4990318;28;20432;-54
2023/03/31 07:32:02;;;;;;;9.63;4.32;;;10.30;99.90;;;;;;4992081;28;20053;-57
2023/03/31 07:34:28;;;;;;;11.00;4.00;;;10.30;99.90;;;;;;5002175;28;20084;-54
2023/03/31 07:36:55;;;;;;;8.90;5.47;;;10.30;99.90;;;;;;5001548;28;20495;-54
2023/03/31 07:39:21;;;;;;;9.88;4.47;;;10.30;99.90;;;;;;4991616;28;20042;-55
2023/03/31 07:41:47;;;;;;;10.15;3.97;;;10.30;99.90;;;;;;4987067;28;20044;-55
2023/03/31 07:44:13;;;;;;;8.25;4.03;;;10.30;99.90;;;;;;4986075;28;20046;-56
2023/03/31 07:46:39;;;;;;;7.38;3.30;;;10.30;99.90;;;;;;5003422;28;21546;-55
2023/03/31 07:49:06;;;;;;;5.00;3.20;;;10.30;99.90;;;;;;5003904;28;20047;-56
2023/03/31 07:51:32;;;;;;;8.23;4.13;;;10.30;99.90;;;;;;4986779;28;20026;-58
2023/03/31 07:53:57;;;;;;;7.97;3.28;;;10.30;99.90;;;;;;4993622;28;20682;-55
2023/03/31 07:56:24;;;;;;;9.73;3.42;;;10.30;99.90;;;;;;4992528;28;20041;-52
2023/03/31 07:58:51;;;;;;;9.30;3.40;;;10.20;99.90;;;;;;4971433;28;20489;-55
2023/03/31 08:01:19;;;;;;;8.75;3.50;;;10.20;99.90;;;;;;4982638;28;20081;-57
2023/03/31 08:03:47;;;;;;;9.95;3.80;;;10.20;99.90;;;;;;4999157;28;20076;-52
2023/03/31 08:06:21;;;;;;;7.43;3.60;;;10.30;99.90;;;;;;5010808;28;20492;-55
2023/03/31 08:08:48;;;;;;;5.07;3.22;;;10.30;99.90;;;;;;5010129;28;20398;-57
2023/03/31 08:11:14;;;;;;;7.45;3.58;;;10.30;99.90;;;;;;4985645;28;20042;-56
2023/03/31 08:13:39;;;;;;;6.13;3.50;;;10.30;99.90;;;;;;4994480;28;20056;-55
2023/03/31 08:16:05;;;;;;;7.65;3.83;;;10.30;99.90;;;;;;4986142;28;20042;-57
2023/03/31 08:18:31;;;;;;;6.13;3.15;;;10.30;99.90;;;;;;4999576;28;20038;-54
2023/03/31 08:20:57;;;;;;;10.00;4.65;;;10.40;99.90;;;;;;5003605;28;20042;-59
2023/03/31 08:23:22;;;;;;;6.72;3.83;;;10.40;99.90;;;;;;4986952;28;20050;-56
2023/03/31 08:25:48;;;;;;;11.38;4.82;;;10.40;99.90;;;;;;4989948;28;20045;-56
2023/03/31 08:28:14;;;;;;;7.15;3.60;;;10.40;99.90;;;;;;5007675;28;20096;-57
2023/03/31 08:30:40;;;;;;;7.43;4.47;;;10.40;99.90;;;;;;4997723;28;20128;-57
2023/03/31 08:33:07;;;;;;;8.75;4.45;;;10.40;99.90;;;;;;4985861;28;20045;-54
2023/03/31 08:35:34;;;;;;;9.25;4.90;;;10.50;99.90;;;;;;5002117;28;20473;-58
2023/03/31 08:38:00;;;;;;;9.35;4.40;;;10.50;99.90;;;;;;4972042;28;20038;-55
2023/03/31 08:40:28;;;;;;;8.60;4.30;;;10.50;99.90;;;;;;5004351;28;20604;-54
2023/03/31 08:43:26;;;;;;;10.15;4.60;;;10.60;99.90;;;;;;4982849;28;20124;-57
2023/03/31 08:45:53;;;;;;;10.18;4.50;;;10.70;99.90;;;;;;4986476;28;20045;-57
2023/03/31 08:48:24;;;;;;;11.90;4.82;;;10.70;99.90;;;;;;4994880;28;20140;-56
2023/03/31 08:51:02;;;;;;;11.23;4.45;;;10.80;99.90;;;;;;4990096;28;20407;-56
2023/03/31 08:53:50;;;;;;;12.55;5.07;;;10.80;99.90;;;;;;4986937;28;20045;-58
2023/03/31 08:56:19;;;;;;;12.27;4.53;;;10.80;99.90;;;;;;4983967;28;20050;-55
2023/03/31 08:58:48;;;;;;;13.38;5.03;;;10.90;99.90;;;;;;4993107;28;20048;-58
2023/03/31 09:01:33;;;;;;;6.70;4.47;;;11.00;99.90;;;;;;5001697;28;20033;-56
2023/03/31 09:04:42;;;;;;;9.40;4.40;;;11.00;99.90;;;;;;5013761;28;20045;-52
2023/03/31 09:07:16;;;;;;;8.93;4.10;;;11.10;99.90;;;;;;5013221;28;20042;-52
2023/03/31 09:10:11;;;;;;;13.65;4.55;;;11.10;99.90;;;;;;5005094;28;20046;-52
2023/03/31 09:12:40;;;;;;;10.68;4.53;;;11.20;99.90;;;;;;4940582;28;20054;-55
2023/03/31 09:15:39;;;;;;;7.75;4.15;;;11.20;99.90;;;;;;4994552;28;20053;-57
2023/03/31 09:18:30;;;;;;;7.72;3.83;;;11.20;99.90;;;;;;5008880;28;20038;-56
2023/03/31 09:21:17;;;;;;;12.85;4.40;;;11.30;99.90;;;;;;5014159;28;20490;-55
2023/03/31 09:23:55;;;;;;;12.20;5.07;;;11.30;99.90;;;;;;5009202;28;20057;-56
2023/03/31 09:26:43;;;;;;;9.80;4.20;;;11.30;99.90;;;;;;4987912;28;20112;-56
2023/03/31 09:29:23;;;;;;;11.48;4.60;;;11.30;99.90;;;;;;4996954;28;20127;-55
2023/03/31 09:31:49;;;;;;;8.85;4.05;;;11.40;99.90;;;;;;5008876;28;20054;-53
2023/03/31 09:34:23;;;;;;;9.48;4.07;;;11.40;99.90;;;;;;5011303;28;20405;-54
2023/03/31 09:36:49;;;;;;;8.77;3.72;;;11.50;99.90;;;;;;5009174;28;20077;-55
2023/03/31 09:39:15;;;;;;;7.53;3.72;;;11.50;99.90;;;;;;4984737;28;20041;-57
2023/03/31 09:41:48;;;;;;;7.35;3.50;;;11.50;99.90;;;;;;5008769;28;20053;-56
2023/03/31 09:44:25;;;;;;;10.27;4.00;;;11.60;99.90;;;;;;4984367;28;20034;-55
2023/03/31 09:46:52;;;;;;;10.73;3.63;;;11.60;99.90;;;;;;4990351;28;20042;-54
2023/03/31 09:49:21;;;;;;;6.88;3.28;;;11.60;99.90;;;;;;5002449;28;20046;-56
2023/03/31 09:52:11;;;;;;;6.70;3.17;;;11.60;99.90;;;;;;5003204;28;20054;-58
2023/03/31 09:54:50;;;;;;;7.57;2.72;;;11.50;99.90;;;;;;4999920;28;20623;-55
2023/03/31 09:57:28;;;;;;;6.30;2.95;;;11.50;99.90;;;;;;5002987;28;20042;-53
2023/03/31 10:00:21;;;;;;;9.18;3.28;;;11.50;99.90;;;;;;4998648;28;20041;-54
2023/03/31 10:02:48;;;;;;;7.22;3.60;;;11.50;99.90;;;;;;5005712;28;20041;-56
2023/03/31 10:05:28;;;;;;;9.60;3.67;;;11.60;99.90;;;;;;4986234;28;20060;-57
2023/03/31 10:08:13;;;;;;;6.47;3.40;;;11.60;99.90;;;;;;5005231;22;20819;-58
2023/03/31 10:10:45;;;;;;;8.25;3.45;;;11.60;99.90;;;;;;5018700;28;20690;-60
2023/03/31 10:13:15;;;;;;;7.70;4.22;;;11.60;99.90;;;;;;5026401;28;20033;-59
2023/03/31 10:15:41;;;;;;;8.80;3.90;;;11.60;99.90;;;;;;5037778;28;20163;-59
2023/03/31 10:18:17;;;;;;;4.97;3.17;;;11.70;99.90;;;;;;5024832;28;20041;-58
2023/03/31 10:20:51;;;;;;;7.45;3.92;;;11.70;99.90;;;;;;5025137;28;20046;-60
2023/03/31 10:23:26;;;;;;;8.25;4.00;;;11.70;99.90;;;;;;5022387;28;20435;-59
2023/03/31 10:25:53;;;;;;;7.80;4.10;;;11.70;99.90;;;;;;5038342;28;20510;-58
2023/03/31 10:28:20;;;;;;;11.15;4.80;;;11.70;99.90;;;;;;5008012;28;20048;-59
2023/03/31 10:30:49;;;;;;;7.75;4.60;;;11.70;99.90;;;;;;5043243;28;20049;-58
2023/03/31 10:33:18;;;;;;;17.92;5.97;;;11.70;99.90;;;;;;5039318;28;20589;-61
2023/03/31 10:35:47;;;;;;;11.65;4.13;;;11.80;99.90;;;;;;5051290;28;20040;-59
2023/03/31 10:38:18;;;;;;;11.85;4.38;;;11.90;99.90;;;;;;5025706;28;20290;-59
2023/03/31 10:40:55;;;;;;;8.45;4.10;;;11.90;99.90;;;;;;5020790;28;20778;-58
2023/03/31 10:43:25;;;;;;;12.05;4.38;;;12.10;99.90;;;;;;5004254;28;20060;-61
2023/03/31 10:45:55;;;;;;;9.10;4.13;;;12.10;99.90;;;;;;5022379;28;20132;-58
2023/03/31 10:48:27;;;;;;;10.95;4.30;;;12.20;99.90;;;;;;5021834;28;20053;-59
2023/03/31 10:50:57;;;;;;;13.80;4.72;;;12.30;99.90;;;;;;5026261;28;20053;-59
2023/03/31 10:53:23;;;;;;;9.82;5.05;;;12.30;99.90;;;;;;5034786;28;20041;-61
2023/03/31 10:55:55;;;;;;;12.30;4.70;;;12.40;99.90;;;;;;5025492;28;20049;-60
2023/03/31 10:59:02;;;;;;;11.07;4.13;;;12.50;99.90;;;;;;5035799;28;20055;-58
2023/03/31 11:01:34;;;;;;;12.98;4.15;;;12.50;99.90;;;;;;5011161;28;20053;-59
2023/03/31 11:04:37;;;;;;;12.05;4.25;;;12.60;99.90;;;;;;5045651;28;20477;-58
2023/03/31 11:07:39;;;;;;;9.95;3.65;;;12.60;99.90;;;;;;5038953;28;20033;-61
2023/03/31 11:10:33;;;;;;;8.50;3.42;;;12.70;99.90;;;;;;5017170;28;20046;-58
2023/03/31 11:13:10;;;;;;;;;;;12.80;99.90;;;;;;5029515;28;20043;-58
2023/03/31 11:16:06;;;;;;;7.82;3.35;;;12.80;99.90;;;;;;5048405;28;19956;-58
2023/03/31 11:18:42;;;;;;;8.95;3.40;;;12.80;99.90;;;;;;5041233;28;20033;-59
2023/03/31 11:21:27;;;;;;;13.30;3.75;;;12.80;99.90;;;;;;5026859;28;20124;-58
2023/03/31 11:24:33;;;;;;;14.55;3.90;;;12.80;99.90;;;;;;5043315;28;20492;-61
2023/03/31 11:27:20;;;;;;;12.25;3.80;;;12.90;99.90;;;;;;5032117;28;20041;-59
2023/03/31 11:29:54;;;;;;;12.30;3.90;;;13.10;99.90;;;;;;5024887;28;20385;-59
2023/03/31 11:32:27;;;;;;;9.13;3.50;;;13.30;99.90;;;;;;5038395;28;20048;-57
2023/03/31 11:35:27;;;;;;;12.30;2.97;;;13.40;99.90;;;;;;5027287;28;20701;-59
2023/03/31 11:38:23;;;;;;;7.03;2.70;;;13.40;99.90;;;;;;5039545;28;20060;-59
2023/03/31 11:41:09;;;;;;;7.43;2.15;;;13.40;99.90;;;;;;5042755;28;20044;-60
2023/03/31 11:43:49;;;;;;;8.48;2.10;;;13.50;99.90;;;;;;5019392;28;20045;-59
2023/03/31 11:46:17;;;;;;;9.68;2.38;;;13.50;99.90;;;;;;5043559;28;20175;-58
2023/03/31 11:48:49;;;;;;;8.88;2.45;;;13.50;99.90;;;;;;5019808;28;20057;-61
2023/03/31 11:51:24;;;;;;;9.90;2.53;;;13.50;99.90;;;;;;5042597;28;20049;-57
2023/03/31 11:53:53;;;;;;;8.10;3.00;;;13.40;99.90;;;;;;5024622;28;20150;-59
2023/03/31 11:56:21;;;;;;;10.23;3.28;;;13.30;99.90;;;;;;5024727;28;20056;-58
2023/03/31 11:58:56;;;;;;;10.18;2.47;;;13.30;99.90;;;;;;5029198;28;20109;-60
2023/03/31 12:01:24;;;;;;;10.35;2.42;;;13.20;99.90;;;;;;5022462;28;20127;-57
2023/03/31 12:03:53;;;;;;;8.60;2.58;;;13.20;99.90;;;;;;5041999;28;20036;-57
2023/03/31 12:06:22;;;;;;;10.63;3.15;;;13.10;99.90;;;;;;5022282;28;20045;-58
2023/03/31 12:08:53;;;;;;;6.40;2.17;;;13.10;99.90;;;;;;5047296;28;20124;-61
2023/03/31 12:11:30;;;;;;;6.47;2.17;;;13.10;99.90;;;;;;5041292;28;20403;-59
2023/03/31 12:14:10;;;;;;;6.63;2.67;;;13.20;99.90;;;;;;5046170;28;20033;-58
2023/03/31 12:16:45;;;;;;;7.30;2.88;;;13.20;99.90;;;;;;5046408;28;20055;-61
2023/03/31 12:19:28;;;;;;;11.35;2.90;;;13.20;99.90;;;;;;5021537;28;20041;-60
2023/03/31 12:22:08;;;;;;;10.57;3.40;;;13.10;99.90;;;;;;5007251;28;20048;-60
2023/03/31 12:24:35;;;;;;;8.40;3.13;;;13.20;99.90;;;;;;5039899;28;20036;-61
2023/03/31 12:27:11;;;;;;;7.15;3.35;;;13.20;99.90;;;;;;5013794;28;20041;-60
2023/03/31 12:29:54;;;;;;;11.68;3.60;;;13.30;99.90;;;;;;5023040;28;20186;-59
2023/03/31 12:32:28;;;;;;;8.45;3.67;;;13.40;99.90;;;;;;5016767;28;20119;-60
2023/03/31 12:34:57;;;;;;;13.50;4.45;;;13.50;99.90;;;;;;5043577;28;20037;-60
2023/03/31 12:37:43;;;;;;;13.05;4.18;;;13.70;99.90;;;;;;5038740;28;20665;-61
2023/03/31 12:40:55;;;;;;;8.65;4.30;;;13.70;99.90;;;;;;5045124;28;20488;-60
2023/03/31 12:43:58;;;;;;;9.60;3.50;;;13.80;99.90;;;;;;5025135;28;20041;-59
2023/03/31 12:47:02;;;;;;;12.40;4.00;;;13.80;99.90;;;;;;5040500;28;20107;-61
2023/03/31 12:49:43;;;;;;;8.60;3.75;;;13.70;99.90;;;;;;5038166;28;20049;-59
2023/03/31 12:52:21;;;;;;;11.20;3.78;;;13.60;99.90;;;;;;5045006;28;20246;-60
2023/03/31 12:55:08;;;;;;;10.93;3.55;;;13.50;99.90;;;;;;5022896;28;20047;-60
2023/03/31 12:57:34;;;;;;;10.30;3.00;;;13.50;99.90;;;;;;5047277;28;20317;-61
2023/03/31 13:00:26;;;;;;;12.35;3.40;;;13.40;99.90;;;;;;5027059;28;20068;-59
2023/03/31 13:03:29;;;;;;;10.93;2.83;;;13.30;99.90;;;;;;5010197;28;20059;-60
2023/03/31 13:05:55;;;;;;;13.43;3.47;;;13.30;99.90;;;;;;5036830;28;20032;-59
2023/03/31 13:08:49;;;;;;;9.85;3.00;;;13.20;99.90;;;;;;5020781;28;20047;-59